PATC/TNC METAR and TAF weather

Enter ICAO airport designator
Station Type Date Time Source
PATC METAR 2020/07/11 01:55 UTC NOAA

PATC 110155Z AUTO 02017KT 10SM CLR 11/07 A2993 RMK AO2 SLP137 T01060069


Station Type Date Time Source
PATC Decoded METAR 2020/07/11 01:55 UTC NOAA

Tin City Airways Facilities Sector, AK, United States (PATC) 65-34N 167-55W
Jul 10, 2020 - 09:55 PM EDT / 2020.07.11 0155 UTC
Wind: from the NNE (020 degrees) at 20 MPH (17 KT):0
Visibility: 10 mile(s):0
Sky conditions: clear
Temperature: 51.1 F (10.6 C)
Dew Point: 44.4 F (6.9 C)
Relative Humidity: 77%
Pressure (altimeter): 29.93 in. Hg (1013 hPa)
ob: PATC 110155Z AUTO 02017KT 10SM CLR 11/07 A2993 RMK AO2 SLP137 T01060069
cycle: 2

Station Type Date Time Source
PATC TAF 2016/08/27 04:12 UTC NOAA

TAF PATC 270400Z 2704/2810 18012G18KT 0400 FG OVC002 QNH3015INS TX10/2718Z TN06/2710Z

Example: see airport list